Henderson, Nevada Weather observations

Data are for observation ending at time listed.
 Day   Time    Ave.   Ave.  Ave.  Vector   Max.   Stn.    Total    Solar   Ave.  
  of    of     Air    Rel.  Wind   Wind    Wind   Baro.  Precip.   Rad.    Soil  
Year   Day     Temp.  Hum.  Speed  Dir.    Gust   Pres.                    Temp. 
2014   (PST)    F      %     mph   deg.    mph     mb.     in.     W/m2     F   
------------------------------------------------------------------------------
 294    7:30   75.1    27    1.5   104      3.5   935.1    0.00     279    76.3
 294    7:40   75.8    26    1.0    76      2.9   935.3    0.00     313    77.9
 294    7:50   76.1    26    2.6   102      5.1   935.5    0.00     345    79.2
 294    8:00   76.4    25    2.9   172      7.3   935.5    0.00     378    80.3
 294    8:10   77.1    25    3.3   174      7.3   935.5    0.00     412    81.2
 294    8:20   77.8    24    2.6   175      6.4   935.5    0.00     444    82.3
 294    8:30   78.9    23    2.4   180      5.9   935.4    0.00     475    83.4
 294    8:40   80.0    23    2.3   181      5.6   935.3    0.00     507    84.6
 294    8:50   81.6    21    2.6   179      5.6   935.2    0.00     536    86.1
 294    9:00   81.6    22    1.4   158      6.1   935.2    0.00     564    87.2
 294    9:10   82.5    21    2.3   162      7.2   935.2    0.00     590    88.2
 294    9:20   82.3    22    2.8   150      7.5   935.3    0.00     614    89.2
 294    9:30   82.1    22    2.7   150      5.8   935.4    0.00     638    89.8
 294    9:40   82.4    21    3.4   188      7.5   935.4    0.00     661    90.4
 294    9:50   82.7    21    2.4   201      6.9   935.3    0.00     680    91.1
 294   10:00   82.4    22    1.9   248      5.1   935.2    0.00     699    91.7
 294   10:10   83.6    20    1.8   189      5.0   935.1    0.00     718    92.4
 294   10:20   82.7    21    1.8   243      6.1   935.0    0.00     733    92.9
 294   10:30   83.0    20    1.3    17      3.7   934.8    0.00     748    93.2
 294   10:40   83.9    20    3.0   115      6.2   934.7    0.00     763    93.5
 294   10:50   84.6    19    2.9   134      7.3   934.5    0.00     768    93.4
 294   11:00   85.2    19    3.0   148      8.4   934.4    0.00     777    93.7
 294   11:10   86.0    18    2.8   174      8.9   934.4    0.00     782    94.1
 294   11:20   86.3    18    2.4   153      6.6   934.3    0.00     786    94.7
 294   11:30   86.2    18    2.7   199      8.1   934.1    0.00     784    94.9
 294   11:40   86.7    17    4.1   173     11.8   934.0    0.00     782    95.0
 294   11:50   86.8    17    3.3   188      8.6   933.8    0.00     782    94.9
 294   12:00   87.1    17    2.4   220      6.8   933.6    0.00     782    95.2
 294   12:10   87.5    16    3.8   195     10.8   933.4    0.00     771    95.3
 294   12:20   88.0    15    3.5   177     10.1   933.3    0.00     768    95.2
 294   12:30   88.0    13    3.2   216      7.8   933.2    0.00     767    95.3
 294   12:40   87.8    13    3.5   232     10.1   933.0    0.00     753    95.1
 294   12:50   87.8    12    4.8   232     11.9   932.9    0.00     744    94.4
 294   13:00   87.8    12    5.9   250     13.7   932.8    0.00     679    93.9
 294   13:10   86.5    12    7.6   260     12.9   932.8    0.00     663    92.6
 294   13:20   86.8    12    6.6   246     15.9   932.6    0.00     706    92.0
 294   13:30   86.5    12    6.7   260     13.3   932.4    0.00     573    91.4
 294   13:40   86.4    13    6.2   260     13.5   932.3    0.00     654    90.5
 294   13:50   86.5    13    7.1   258     13.4   932.1    0.00     660    90.3
 294   14:00   86.4    13    6.6   267     13.9   931.9    0.00     491    89.8
 294   14:10   85.8    13    8.1   268     16.7   931.8    0.00     556    88.8
 294   14:20   87.0    13    5.8   252     12.1   931.8    0.00     480    88.6
 294   14:30   86.0    13    4.5   217     10.4   931.7    0.00     246    87.7
 294   14:40   86.1    13    3.0   236      8.0   931.8    0.00     225    86.6
 294   14:50   85.5    14    5.4   265     11.8   931.8    0.00     305    85.9
 294   15:00   85.9    13    5.5   262     11.4   931.9    0.00     358    85.6
 294   15:10   86.1    13    4.9   264     10.5   932.0    0.00     422    85.2
 294   15:20   85.4    12    5.3   269     10.0   932.0    0.00     354    84.6
 294   15:30   85.9    12    3.8   253     10.6   931.9    0.00     305    83.9
 294   15:40   85.4    13    3.6   241      9.1   931.9    0.00     266    83.2
 294   15:50   84.7    13    5.1   255     10.5   931.8    0.00     225    82.8
 294   16:00   84.3    13    4.6   250     10.4   931.8    0.00     171    82.4
 294   16:10   83.9    13    5.4   252     12.9   931.8    0.00     154    82.0
 294   16:20   83.7    14    4.7   248      9.9   931.8    0.00     129    81.6
 294   16:30   83.1    14    4.6   254     10.5   931.9    0.00      71    81.1
 294   16:40   82.3    14    4.6   249     11.8   931.9    0.00      21    80.5
 294   16:50   81.8    14    4.6   235     11.0   931.9    0.00      16    79.8
 294   17:00   81.5    13    3.5   232     11.8   931.9    0.00       7    79.1
 294   17:10   81.1    12    4.4   242     11.2   931.9    0.00       7    78.5
 294   17:20   80.9    12    3.6   233     10.4   932.0    0.00       1    78.1
 294   17:30   80.3    12    3.8   229     10.3   932.2    0.00       0    77.5
 294   17:40   80.0    11    4.6   233     13.5   932.2    0.00       0    77.0
 294   17:50   79.5    11    3.7   224      8.0   932.4    0.00       0    76.5
 294   18:00   79.1    10    2.7   223      8.0   932.5    0.00       0    75.8
 294   18:10   79.1    10    3.4   224      9.3   932.5    0.00       0    75.1
 294   18:20   79.0    11    4.0   211     10.7   932.7    0.00       0    74.9
 294   18:30   79.4    11    4.4   166     12.1   932.7    0.00       0    74.7
 294   18:40   78.7    11    2.7   154      5.8   932.8    0.00       0    74.6
 294   18:50   78.8    11    4.0   182      9.1   932.9    0.00       0    74.0
 294   19:00   78.8    11    4.1   193      8.6   933.0    0.00       0    73.6
 294   19:10   77.7    12    2.7   201      8.3   933.0    0.00       0    73.2
 294   19:20   75.5    13    1.6   254      5.3   933.2    0.00       0    72.1
 294   19:30   74.4    14    1.4   153      3.6   933.3    0.00       0    71.0
 294   19:40   75.3    14    2.5   179      5.4   933.5    0.00       0    70.3
 294   19:50   74.9    14    1.6   195      4.3   933.6    0.00       0    69.8
 294   20:00   74.3    14    3.7   185      8.3   933.6    0.00       0    69.2
 294   20:10   74.7    14    2.8   178      7.4   933.6    0.00       0    69.0
 294   20:20   73.8    14    2.0   159      5.3   933.7    0.00       0    68.8
 294   20:30   72.7    14    2.6   183      6.1   933.9    0.00       0    68.3
 294   20:40   72.4    14    4.0   190      8.5   934.1    0.00       0    67.7
 294   20:50   72.4    14    3.0   185      7.4   934.0    0.00       0    67.4
 294   21:00   72.9    14    3.5   184     10.1   934.1    0.00       0    67.3
 294   21:10   73.6    13    3.9   179      9.0   934.1    0.00       0    67.5
 294   21:20   73.2    13    4.7   190      9.3   934.1    0.00       0    67.7
 294   21:30   72.9    13    4.1   176     10.7   934.1    0.00       0    67.8
 294   21:40   72.4    14    2.5   143      5.6   934.2    0.00       0    67.7
 294   21:50   71.4    14    3.1   124      5.6   934.3    0.00       0    67.5
 294   22:00   71.7    14    3.3   150      7.7   934.4    0.00       0    67.4
 294   22:10   72.6    13    3.8   167      8.8   934.3    0.00       0    67.4
 294   22:20   72.6    13    5.6   184     11.0   934.3    0.00       0    67.7
 294   22:30   72.4    13    4.0   182      8.5   934.4    0.00       0    67.6
 294   22:40   71.5    14    2.6   179      7.0   934.4    0.00       0    67.4
 294   22:50   70.1    15    1.5   200      4.7   934.5    0.00       0    66.6
 294   23:00   69.3    15    1.5   175      3.6   934.5    0.00       0    65.7
 294   23:10   69.0    16    1.4   118      3.1   934.4    0.00       0    65.0
 294   23:20   68.3    16    1.2   146      2.9   934.4    0.00       0    64.3
 294   23:30   68.1    17    0.7   146      1.9   934.4    0.00       0    63.6
 294   23:40   68.1    17    1.6   163      5.8   934.4    0.00       0    63.0
 294   23:50   68.3    18    1.9   186      4.1   934.3    0.00       0    62.6
 295    0:00   68.6    18    1.3   143      3.9   934.4    0.00       0    62.3
 295    0:10   68.0    18    0.8   150      2.0   934.5    0.00       0    62.1
 295    0:20   66.4    20    0.7   126      2.1   934.7    0.00       0    61.5
 295    0:30   66.1    21    1.4   120      3.1   934.5    0.00       0    61.0
 295    0:40   68.4    19    1.9   146      4.1   934.4    0.00       0    61.2
 295    0:50   69.0    19    1.8   112      4.3   934.5    0.00       0    62.0
 295    1:00   66.4    20    0.4    64      1.4   934.6    0.00       0    61.8
 295    1:10   65.5    21    0.9   106      2.6   934.8    0.00       0    61.0
 295    1:20   66.9    20    2.1   121      5.0   934.8    0.00       0    60.8
 295    1:30   69.3    18    2.2   125      3.9   934.9    0.00       0    61.4
 295    1:40   69.4    17    2.1   177      4.5   935.0    0.00       0    62.2
 295    1:50   67.7    19    2.2   213      5.0   935.2    0.00       0    62.2
 295    2:00   65.2    22    0.9   325      2.5   935.2    0.00       0    61.6
 295    2:10   64.1    23    0.9    67      1.7   935.2    0.00       0    60.9
 295    2:20   63.7    24    0.5   133      1.5   935.2    0.00       0    60.3
 295    2:30   62.5    25    0.3   228      1.2   935.2    0.00       0    59.5
 295    2:40   62.6    23    1.5   128      3.1   935.3    0.00       0    58.8
 295    2:50   65.0    21    2.5   125      4.1   935.3    0.00       0    58.9
 295    3:00   66.9    19    2.4   130      4.5   935.4    0.00       0    59.8
 295    3:10   66.9    19    2.0   136      4.3   935.5    0.00       0    60.6
 295    3:20   67.3    19    2.2   167      5.7   935.5    0.00       0    61.0
 295    3:30   65.3    22    2.8   274      6.8   935.7    0.00       0    61.0
 295    3:40   64.1    25    2.6   271      4.2   936.0    0.00       0    60.6
 295    3:50   63.3    26    1.8   237      3.6   936.1    0.00       0    60.1
 295    4:00   63.0    26    2.0   231      3.6   936.2    0.00       0    59.5
 295    4:10   63.3    26    2.1   252      3.6   936.2    0.00       0    59.0
 295    4:20   62.9    26    1.4   240      2.9   936.4    0.00       0    58.7
 295    4:30   62.4    27    0.7   123      3.4   936.5    0.00       0    58.3
 295    4:40   61.8    27    0.7   183      2.6   936.5    0.00       0    57.7
 295    4:50   61.4    28    0.4   120      1.4   936.6    0.00       0    57.2
 295    5:00   60.2    29    0.1   280      1.2   936.8    0.00       0    56.6
 295    5:10   59.5    30    0.6   111      2.4   937.0    0.00       0    56.0
 295    5:20   59.6    30    0.6   136      1.9   937.1    0.00       0    55.6
 295    5:30   59.4    30    0.4   173      1.7   937.2    0.00       0    55.2
 295    5:40   58.9    30    0.9   174      1.8   937.3    0.00       0    54.7
 295    5:50   58.9    31    0.3   180      1.2   937.4    0.00       1    54.4
 295    6:00   58.7    31    0.2   133      0.9   937.6    0.00       7    54.0
 295    6:10   58.4    32    0.1   179      0.7   937.7    0.00      10    53.7
 295    6:20   58.3    33    0.3   255      1.6   938.0    0.00      34    53.6
 295    6:30   59.6    32    0.6   185      2.0   938.2    0.00      65    54.1
 295    6:40   62.2    29    0.6   182      2.6   938.4    0.00     101    55.8
 295    6:50   63.8    29    0.8   222      2.3   938.6    0.00     145    58.5
 295    7:00   65.9    27    1.1   120      3.1   938.9    0.00     174    61.2
 295    7:10   66.3    27    1.2   271      3.1   939.1    0.00     207    64.0
 295    7:20   68.2    25    0.9   261      2.2   939.3    0.00     218    66.3

Return to Henderson, Nevada graphs page.


Western Regional Climate Center,wrcc@dri.edu